sensor_id;sensor_type;location;lat;lon;timestamp;temperature;humidity
37518;DHT22;23366;52.498;13.446;2023-10-31T00:01:27;12.20;99.90
37518;DHT22;23366;52.498;13.446;2023-10-31T00:03:53;12.20;99.90
37518;DHT22;23366;52.498;13.446;2023-10-31T00:06:18;12.20;99.90
37518;DHT22;23366;52.498;13.446;2023-10-31T00:08:44;12.10;99.90
37518;DHT22;23366;52.498;13.446;2023-10-31T00:11:09;12.20;99.90
37518;DHT22;23366;52.498;13.446;2023-10-31T00:13:35;12.20;99.90
37518;DHT22;23366;52.498;13.446;2023-10-31T00:16:00;12.20;99.90
37518;DHT22;23366;52.498;13.446;2023-10-31T00:18:26;12.20;99.90
37518;DHT22;23366;52.498;13.446;2023-10-31T00:20:51;12.20;99.90
37518;DHT22;23366;52.498;13.446;2023-10-31T00:23:17;12.10;99.90
37518;DHT22;23366;52.498;13.446;2023-10-31T00:25:42;12.10;99.90
37518;DHT22;23366;52.498;13.446;2023-10-31T00:28:08;12.00;99.90
37518;DHT22;23366;52.498;13.446;2023-10-31T00:30:33;11.90;99.90
37518;DHT22;23366;52.498;13.446;2023-10-31T00:32:58;11.90;99.90
37518;DHT22;23366;52.498;13.446;2023-10-31T00:35:24;11.80;99.90
37518;DHT22;23366;52.498;13.446;2023-10-31T00:37:49;11.80;99.90
37518;DHT22;23366;52.498;13.446;2023-10-31T00:40:15;11.70;99.90
37518;DHT22;23366;52.498;13.446;2023-10-31T00:42:41;11.70;99.90
37518;DHT22;23366;52.498;13.446;2023-10-31T00:45:08;11.70;99.90
37518;DHT22;23366;52.498;13.446;2023-10-31T00:47:33;11.60;99.90
37518;DHT22;23366;52.498;13.446;2023-10-31T00:49:58;11.60;99.90
37518;DHT22;23366;52.498;13.446;2023-10-31T00:52:24;11.60;99.90
37518;DHT22;23366;52.498;13.446;2023-10-31T00:54:49;11.60;99.90
37518;DHT22;23366;52.498;13.446;2023-10-31T00:57:15;11.60;99.90
37518;DHT22;23366;52.498;13.446;2023-10-31T00:59:40;11.60;99.90
37518;DHT22;23366;52.498;13.446;2023-10-31T01:02:06;11.60;99.90
37518;DHT22;23366;52.498;13.446;2023-10-31T01:04:31;11.60;99.90
37518;DHT22;23366;52.498;13.446;2023-10-31T01:06:57;11.60;99.90
37518;DHT22;23366;52.498;13.446;2023-10-31T01:09:22;11.60;99.90
37518;DHT22;23366;52.498;13.446;2023-10-31T01:11:48;11.60;99.90
37518;DHT22;23366;52.498;13.446;2023-10-31T01:14:13;11.60;99.90
37518;DHT22;23366;52.498;13.446;2023-10-31T01:16:40;11.60;99.90
37518;DHT22;23366;52.498;13.446;2023-10-31T01:19:05;11.60;99.90
37518;DHT22;23366;52.498;13.446;2023-10-31T01:21:31;11.60;99.90
37518;DHT22;23366;52.498;13.446;2023-10-31T01:23:58;11.60;99.90
37518;DHT22;23366;52.498;13.446;2023-10-31T01:26:24;11.60;99.90
37518;DHT22;23366;52.498;13.446;2023-10-31T01:28:49;11.60;99.90
37518;DHT22;23366;52.498;13.446;2023-10-31T01:31:14;11.50;99.90
37518;DHT22;23366;52.498;13.446;2023-10-31T01:33:40;11.60;99.90
37518;DHT22;23366;52.498;13.446;2023-10-31T01:36:06;11.50;99.90
37518;DHT22;23366;52.498;13.446;2023-10-31T01:38:31;11.50;99.90
37518;DHT22;23366;52.498;13.446;2023-10-31T01:40:57;11.50;99.90
37518;DHT22;23366;52.498;13.446;2023-10-31T01:43:36;11.50;99.90
37518;DHT22;23366;52.498;13.446;2023-10-31T01:46:02;11.50;99.90
37518;DHT22;23366;52.498;13.446;2023-10-31T01:48:30;11.50;99.90
37518;DHT22;23366;52.498;13.446;2023-10-31T01:50:57;11.50;99.90
37518;DHT22;23366;52.498;13.446;2023-10-31T01:53:24;11.50;99.90
37518;DHT22;23366;52.498;13.446;2023-10-31T01:55:52;11.50;99.90
37518;DHT22;23366;52.498;13.446;2023-10-31T01:58:20;11.50;99.90
37518;DHT22;23366;52.498;13.446;2023-10-31T02:00:46;11.50;99.90
37518;DHT22;23366;52.498;13.446;2023-10-31T02:03:12;11.60;99.90
37518;DHT22;23366;52.498;13.446;2023-10-31T02:05:38;11.50;99.90
37518;DHT22;23366;52.498;13.446;2023-10-31T02:08:05;11.60;99.90
37518;DHT22;23366;52.498;13.446;2023-10-31T02:10:33;11.60;99.90
37518;DHT22;23366;52.498;13.446;2023-10-31T02:13:09;11.60;99.90
37518;DHT22;23366;52.498;13.446;2023-10-31T02:15:34;11.60;99.90
37518;DHT22;23366;52.498;13.446;2023-10-31T02:18:00;11.60;99.90
37518;DHT22;23366;52.498;13.446;2023-10-31T02:20:25;11.60;99.90
37518;DHT22;23366;52.498;13.446;2023-10-31T02:22:51;11.50;99.90
37518;DHT22;23366;52.498;13.446;2023-10-31T02:25:17;11.50;99.90
37518;DHT22;23366;52.498;13.446;2023-10-31T02:27:43;11.40;99.90
37518;DHT22;23366;52.498;13.446;2023-10-31T02:30:09;11.40;99.90
37518;DHT22;23366;52.498;13.446;2023-10-31T02:32:34;11.40;99.90
37518;DHT22;23366;52.498;13.446;2023-10-31T02:35:00;11.40;99.90
37518;DHT22;23366;52.498;13.446;2023-10-31T02:37:25;11.40;99.90
37518;DHT22;23366;52.498;13.446;2023-10-31T02:39:51;11.40;99.90
37518;DHT22;23366;52.498;13.446;2023-10-31T02:42:16;11.40;99.90
37518;DHT22;23366;52.498;13.446;2023-10-31T02:44:41;11.30;99.90
37518;DHT22;23366;52.498;13.446;2023-10-31T02:47:07;11.30;99.90
37518;DHT22;23366;52.498;13.446;2023-10-31T02:49:33;11.30;99.90
37518;DHT22;23366;52.498;13.446;2023-10-31T02:51:58;11.30;99.90
37518;DHT22;23366;52.498;13.446;2023-10-31T02:54:23;11.30;99.90
37518;DHT22;23366;52.498;13.446;2023-10-31T02:56:49;11.30;99.90
37518;DHT22;23366;52.498;13.446;2023-10-31T02:59:14;11.30;99.90
37518;DHT22;23366;52.498;13.446;2023-10-31T03:01:40;11.30;99.90
37518;DHT22;23366;52.498;13.446;2023-10-31T03:04:05;11.30;99.90
37518;DHT22;23366;52.498;13.446;2023-10-31T03:06:31;11.30;99.90
37518;DHT22;23366;52.498;13.446;2023-10-31T03:08:56;11.40;99.90
37518;DHT22;23366;52.498;13.446;2023-10-31T03:11:23;11.40;99.90
37518;DHT22;23366;52.498;13.446;2023-10-31T03:13:49;11.40;99.90
37518;DHT22;23366;52.498;13.446;2023-10-31T03:16:15;11.40;99.90
37518;DHT22;23366;52.498;13.446;2023-10-31T03:18:40;11.40;99.90
37518;DHT22;23366;52.498;13.446;2023-10-31T03:21:06;11.40;99.90
37518;DHT22;23366;52.498;13.446;2023-10-31T03:23:31;11.40;99.90
37518;DHT22;23366;52.498;13.446;2023-10-31T03:25:57;11.40;99.90
37518;DHT22;23366;52.498;13.446;2023-10-31T03:28:22;11.40;99.90
37518;DHT22;23366;52.498;13.446;2023-10-31T03:30:50;11.50;99.90
37518;DHT22;23366;52.498;13.446;2023-10-31T03:33:16;11.40;99.90
37518;DHT22;23366;52.498;13.446;2023-10-31T03:35:42;11.50;99.90
37518;DHT22;23366;52.498;13.446;2023-10-31T03:38:08;11.50;99.90
37518;DHT22;23366;52.498;13.446;2023-10-31T03:40:33;11.50;99.90
37518;DHT22;23366;52.498;13.446;2023-10-31T03:42:59;11.50;99.90
37518;DHT22;23366;52.498;13.446;2023-10-31T03:45:24;11.50;99.90
37518;DHT22;23366;52.498;13.446;2023-10-31T03:47:49;11.50;99.90
37518;DHT22;23366;52.498;13.446;2023-10-31T03:50:15;11.50;99.90
37518;DHT22;23366;52.498;13.446;2023-10-31T03:52:40;11.50;99.90
37518;DHT22;23366;52.498;13.446;2023-10-31T03:55:06;11.50;99.90
37518;DHT22;23366;52.498;13.446;2023-10-31T03:57:32;11.50;99.90
37518;DHT22;23366;52.498;13.446;2023-10-31T03:59:57;11.50;99.90
37518;DHT22;23366;52.498;13.446;2023-10-31T04:02:22;11.50;99.90
37518;DHT22;23366;52.498;13.446;2023-10-31T04:04:48;11.50;99.90
37518;DHT22;23366;52.498;13.446;2023-10-31T04:07:14;11.50;99.90
37518;DHT22;23366;52.498;13.446;2023-10-31T04:09:40;11.50;99.90
37518;DHT22;23366;52.498;13.446;2023-10-31T04:12:05;11.50;99.90
37518;DHT22;23366;52.498;13.446;2023-10-31T04:14:31;11.50;99.90
37518;DHT22;23366;52.498;13.446;2023-10-31T04:16:56;11.50;99.90
37518;DHT22;23366;52.498;13.446;2023-10-31T04:19:22;11.50;99.90
37518;DHT22;23366;52.498;13.446;2023-10-31T04:21:47;11.50;99.90
37518;DHT22;23366;52.498;13.446;2023-10-31T04:24:13;11.50;99.90
37518;DHT22;23366;52.498;13.446;2023-10-31T04:26:40;11.50;99.90
37518;DHT22;23366;52.498;13.446;2023-10-31T04:29:06;11.50;99.90
37518;DHT22;23366;52.498;13.446;2023-10-31T04:31:33;11.50;99.90
37518;DHT22;23366;52.498;13.446;2023-10-31T04:33:59;11.50;99.90
37518;DHT22;23366;52.498;13.446;2023-10-31T04:36:24;11.50;99.90
37518;DHT22;23366;52.498;13.446;2023-10-31T04:38:50;11.50;99.90
37518;DHT22;23366;52.498;13.446;2023-10-31T04:41:15;11.50;99.90
37518;DHT22;23366;52.498;13.446;2023-10-31T04:43:41;11.50;99.90
37518;DHT22;23366;52.498;13.446;2023-10-31T04:46:09;11.50;99.90
37518;DHT22;23366;52.498;13.446;2023-10-31T04:48:34;11.50;99.90
37518;DHT22;23366;52.498;13.446;2023-10-31T04:51:00;11.50;99.90
37518;DHT22;23366;52.498;13.446;2023-10-31T04:53:25;11.60;99.90
37518;DHT22;23366;52.498;13.446;2023-10-31T04:55:51;11.60;99.90
37518;DHT22;23366;52.498;13.446;2023-10-31T04:58:16;11.60;99.90
37518;DHT22;23366;52.498;13.446;2023-10-31T05:00:42;11.60;99.90
37518;DHT22;23366;52.498;13.446;2023-10-31T05:03:07;11.60;99.90
37518;DHT22;23366;52.498;13.446;2023-10-31T05:05:32;11.60;99.90
37518;DHT22;23366;52.498;13.446;2023-10-31T05:07:58;11.60;99.90
37518;DHT22;23366;52.498;13.446;2023-10-31T05:10:24;11.60;99.90
37518;DHT22;23366;52.498;13.446;2023-10-31T05:12:50;11.60;99.90
37518;DHT22;23366;52.498;13.446;2023-10-31T05:15:19;11.60;99.90
37518;DHT22;23366;52.498;13.446;2023-10-31T05:17:44;11.60;99.90
37518;DHT22;23366;52.498;13.446;2023-10-31T05:20:10;11.60;99.90
37518;DHT22;23366;52.498;13.446;2023-10-31T05:22:36;11.70;99.90
37518;DHT22;23366;52.498;13.446;2023-10-31T05:25:02;11.70;99.90
37518;DHT22;23366;52.498;13.446;2023-10-31T05:27:28;11.70;99.90
37518;DHT22;23366;52.498;13.446;2023-10-31T05:29:54;11.70;99.90
37518;DHT22;23366;52.498;13.446;2023-10-31T05:32:19;11.70;99.90
37518;DHT22;23366;52.498;13.446;2023-10-31T05:34:44;11.70;99.90
37518;DHT22;23366;52.498;13.446;2023-10-31T05:37:10;11.80;99.90
37518;DHT22;23366;52.498;13.446;2023-10-31T05:39:35;11.80;99.90
37518;DHT22;23366;52.498;13.446;2023-10-31T05:42:02;11.80;99.90
37518;DHT22;23366;52.498;13.446;2023-10-31T05:44:28;11.80;99.90
37518;DHT22;23366;52.498;13.446;2023-10-31T05:46:53;11.80;99.90
37518;DHT22;23366;52.498;13.446;2023-10-31T05:49:19;11.80;99.90
37518;DHT22;23366;52.498;13.446;2023-10-31T05:51:49;11.80;99.90
37518;DHT22;23366;52.498;13.446;2023-10-31T05:54:14;11.80;99.90
37518;DHT22;23366;52.498;13.446;2023-10-31T05:56:40;11.80;99.90
37518;DHT22;23366;52.498;13.446;2023-10-31T05:59:05;11.90;99.90
37518;DHT22;23366;52.498;13.446;2023-10-31T06:01:31;11.90;99.90
37518;DHT22;23366;52.498;13.446;2023-10-31T06:03:56;11.90;99.90
37518;DHT22;23366;52.498;13.446;2023-10-31T06:06:22;11.90;99.90
37518;DHT22;23366;52.498;13.446;2023-10-31T06:08:47;11.90;99.90
37518;DHT22;23366;52.498;13.446;2023-10-31T06:11:12;11.90;99.90
37518;DHT22;23366;52.498;13.446;2023-10-31T06:13:38;11.90;99.90
37518;DHT22;23366;52.498;13.446;2023-10-31T06:16:05;11.90;99.90
37518;DHT22;23366;52.498;13.446;2023-10-31T06:18:30;11.90;99.90
37518;DHT22;23366;52.498;13.446;2023-10-31T06:20:56;11.90;99.90
37518;DHT22;23366;52.498;13.446;2023-10-31T06:23:22;12.00;99.90
37518;DHT22;23366;52.498;13.446;2023-10-31T06:25:48;12.00;99.90
37518;DHT22;23366;52.498;13.446;2023-10-31T06:28:13;12.00;99.90
37518;DHT22;23366;52.498;13.446;2023-10-31T06:30:39;11.90;99.90
37518;DHT22;23366;52.498;13.446;2023-10-31T06:33:04;12.00;99.90
37518;DHT22;23366;52.498;13.446;2023-10-31T06:35:30;12.00;99.90
37518;DHT22;23366;52.498;13.446;2023-10-31T06:37:56;12.00;99.90
37518;DHT22;23366;52.498;13.446;2023-10-31T06:40:23;12.00;99.90
37518;DHT22;23366;52.498;13.446;2023-10-31T06:42:48;12.00;99.90
37518;DHT22;23366;52.498;13.446;2023-10-31T06:45:14;12.10;99.90
37518;DHT22;23366;52.498;13.446;2023-10-31T06:47:39;12.10;99.90
37518;DHT22;23366;52.498;13.446;2023-10-31T06:50:07;12.10;99.90
37518;DHT22;23366;52.498;13.446;2023-10-31T06:52:32;12.10;99.90
37518;DHT22;23366;52.498;13.446;2023-10-31T06:54:58;12.10;99.90
37518;DHT22;23366;52.498;13.446;2023-10-31T06:57:23;12.10;99.90
37518;DHT22;23366;52.498;13.446;2023-10-31T06:59:48;12.10;99.90
37518;DHT22;23366;52.498;13.446;2023-10-31T07:02:14;12.10;99.90
37518;DHT22;23366;52.498;13.446;2023-10-31T07:04:40;12.10;99.90
37518;DHT22;23366;52.498;13.446;2023-10-31T07:07:05;12.20;99.90
37518;DHT22;23366;52.498;13.446;2023-10-31T07:09:31;12.10;99.90
37518;DHT22;23366;52.498;13.446;2023-10-31T07:11:56;12.20;99.90
37518;DHT22;23366;52.498;13.446;2023-10-31T07:14:22;12.20;99.90
37518;DHT22;23366;52.498;13.446;2023-10-31T07:16:47;12.20;99.90
37518;DHT22;23366;52.498;13.446;2023-10-31T07:19:13;12.30;99.90
37518;DHT22;23366;52.498;13.446;2023-10-31T07:21:39;12.30;99.90
37518;DHT22;23366;52.498;13.446;2023-10-31T07:24:05;12.40;99.90
37518;DHT22;23366;52.498;13.446;2023-10-31T07:26:32;12.40;99.90
37518;DHT22;23366;52.498;13.446;2023-10-31T07:28:58;12.30;99.90
37518;DHT22;23366;52.498;13.446;2023-10-31T07:31:23;12.40;99.90
37518;DHT22;23366;52.498;13.446;2023-10-31T07:33:49;12.40;99.90
37518;DHT22;23366;52.498;13.446;2023-10-31T07:36:14;12.40;99.90
37518;DHT22;23366;52.498;13.446;2023-10-31T07:38:40;12.30;99.90
37518;DHT22;23366;52.498;13.446;2023-10-31T07:41:05;12.30;99.90
37518;DHT22;23366;52.498;13.446;2023-10-31T07:43:31;12.20;99.90
37518;DHT22;23366;52.498;13.446;2023-10-31T07:45:56;12.20;99.90
37518;DHT22;23366;52.498;13.446;2023-10-31T07:48:21;12.10;99.90
37518;DHT22;23366;52.498;13.446;2023-10-31T07:50:47;12.10;99.90
37518;DHT22;23366;52.498;13.446;2023-10-31T07:53:12;12.00;99.90
37518;DHT22;23366;52.498;13.446;2023-10-31T07:55:38;12.00;99.90
37518;DHT22;23366;52.498;13.446;2023-10-31T07:58:03;11.90;99.90
37518;DHT22;23366;52.498;13.446;2023-10-31T08:00:29;11.90;99.90
37518;DHT22;23366;52.498;13.446;2023-10-31T08:02:56;11.80;99.90
37518;DHT22;23366;52.498;13.446;2023-10-31T08:05:21;11.80;99.90
37518;DHT22;23366;52.498;13.446;2023-10-31T08:07:47;11.70;99.90
37518;DHT22;23366;52.498;13.446;2023-10-31T08:10:13;11.80;99.90
37518;DHT22;23366;52.498;13.446;2023-10-31T08:12:38;11.80;99.90
37518;DHT22;23366;52.498;13.446;2023-10-31T08:15:04;11.80;99.90
37518;DHT22;23366;52.498;13.446;2023-10-31T08:17:29;11.80;99.90
37518;DHT22;23366;52.498;13.446;2023-10-31T08:19:55;11.80;99.90
37518;DHT22;23366;52.498;13.446;2023-10-31T08:22:20;11.80;99.90
37518;DHT22;23366;52.498;13.446;2023-10-31T08:24:46;11.90;99.90
37518;DHT22;23366;52.498;13.446;2023-10-31T08:27:11;11.90;99.90
37518;DHT22;23366;52.498;13.446;2023-10-31T08:29:38;11.90;99.90
37518;DHT22;23366;52.498;13.446;2023-10-31T08:32:03;11.90;99.90
37518;DHT22;23366;52.498;13.446;2023-10-31T08:34:29;11.90;99.90
37518;DHT22;23366;52.498;13.446;2023-10-31T08:36:54;11.90;99.90
37518;DHT22;23366;52.498;13.446;2023-10-31T08:39:21;11.90;99.90
37518;DHT22;23366;52.498;13.446;2023-10-31T08:41:54;11.90;99.90
37518;DHT22;23366;52.498;13.446;2023-10-31T08:44:19;11.90;99.90
37518;DHT22;23366;52.498;13.446;2023-10-31T08:46:45;12.10;99.90
37518;DHT22;23366;52.498;13.446;2023-10-31T08:49:11;12.40;99.90
37518;DHT22;23366;52.498;13.446;2023-10-31T08:51:37;12.50;99.90
37518;DHT22;23366;52.498;13.446;2023-10-31T08:54:02;12.60;99.90
37518;DHT22;23366;52.498;13.446;2023-10-31T08:56:28;12.70;99.90
37518;DHT22;23366;52.498;13.446;2023-10-31T08:58:53;12.70;99.90
37518;DHT22;23366;52.498;13.446;2023-10-31T09:01:19;12.70;99.90
37518;DHT22;23366;52.498;13.446;2023-10-31T09:03:45;12.60;99.90
37518;DHT22;23366;52.498;13.446;2023-10-31T09:06:10;12.50;99.90
37518;DHT22;23366;52.498;13.446;2023-10-31T09:08:36;12.50;99.90
37518;DHT22;23366;52.498;13.446;2023-10-31T09:11:03;12.50;99.90
37518;DHT22;23366;52.498;13.446;2023-10-31T09:13:29;12.40;99.90
37518;DHT22;23366;52.498;13.446;2023-10-31T09:15:54;12.30;99.90
37518;DHT22;23366;52.498;13.446;2023-10-31T09:18:20;12.30;99.90
37518;DHT22;23366;52.498;13.446;2023-10-31T09:20:45;12.40;99.90
37518;DHT22;23366;52.498;13.446;2023-10-31T09:23:11;12.40;99.90
37518;DHT22;23366;52.498;13.446;2023-10-31T09:25:36;12.50;99.90
37518;DHT22;23366;52.498;13.446;2023-10-31T09:28:02;12.60;99.90
37518;DHT22;23366;52.498;13.446;2023-10-31T09:30:27;12.70;99.90
37518;DHT22;23366;52.498;13.446;2023-10-31T09:32:54;12.70;99.90
37518;DHT22;23366;52.498;13.446;2023-10-31T09:35:19;12.80;99.90
37518;DHT22;23366;52.498;13.446;2023-10-31T09:37:45;12.80;99.90
37518;DHT22;23366;52.498;13.446;2023-10-31T09:40:14;12.80;99.90
37518;DHT22;23366;52.498;13.446;2023-10-31T09:42:39;12.70;99.90
37518;DHT22;23366;52.498;13.446;2023-10-31T09:45:05;12.70;99.90
37518;DHT22;23366;52.498;13.446;2023-10-31T09:47:31;12.70;99.90
37518;DHT22;23366;52.498;13.446;2023-10-31T09:49:58;12.70;99.90
37518;DHT22;23366;52.498;13.446;2023-10-31T09:52:25;12.60;99.90
37518;DHT22;23366;52.498;13.446;2023-10-31T09:54:52;12.60;99.90
37518;DHT22;23366;52.498;13.446;2023-10-31T09:57:18;12.60;99.90
37518;DHT22;23366;52.498;13.446;2023-10-31T09:59:44;12.60;99.90
37518;DHT22;23366;52.498;13.446;2023-10-31T10:02:10;12.70;99.90
37518;DHT22;23366;52.498;13.446;2023-10-31T10:04:37;12.70;99.90
37518;DHT22;23366;52.498;13.446;2023-10-31T10:07:03;12.80;99.90
37518;DHT22;23366;52.498;13.446;2023-10-31T10:09:29;12.80;99.90
37518;DHT22;23366;52.498;13.446;2023-10-31T10:11:56;12.80;99.90
37518;DHT22;23366;52.498;13.446;2023-10-31T10:14:24;12.80;99.90
37518;DHT22;23366;52.498;13.446;2023-10-31T10:16:49;12.80;99.90
37518;DHT22;23366;52.498;13.446;2023-10-31T10:19:19;12.80;99.90
37518;DHT22;23366;52.498;13.446;2023-10-31T10:21:53;12.80;99.90
37518;DHT22;23366;52.498;13.446;2023-10-31T10:24:20;12.90;99.90
37518;DHT22;23366;52.498;13.446;2023-10-31T10:26:46;13.00;99.90
37518;DHT22;23366;52.498;13.446;2023-10-31T10:29:12;13.10;99.90
37518;DHT22;23366;52.498;13.446;2023-10-31T10:31:37;13.20;99.90
37518;DHT22;23366;52.498;13.446;2023-10-31T10:34:03;13.30;99.90
37518;DHT22;23366;52.498;13.446;2023-10-31T10:36:29;13.30;99.90
37518;DHT22;23366;52.498;13.446;2023-10-31T10:38:57;13.40;99.90
37518;DHT22;23366;52.498;13.446;2023-10-31T10:41:25;13.40;99.90
37518;DHT22;23366;52.498;13.446;2023-10-31T10:43:55;13.60;99.90
37518;DHT22;23366;52.498;13.446;2023-10-31T10:46:21;13.70;99.90
37518;DHT22;23366;52.498;13.446;2023-10-31T10:48:54;13.90;99.90
37518;DHT22;23366;52.498;13.446;2023-10-31T10:51:46;13.90;99.90
37518;DHT22;23366;52.498;13.446;2023-10-31T10:54:19;14.00;99.90
37518;DHT22;23366;52.498;13.446;2023-10-31T10:56:55;14.10;99.90
37518;DHT22;23366;52.498;13.446;2023-10-31T10:59:39;14.20;99.90
37518;DHT22;23366;52.498;13.446;2023-10-31T11:02:06;14.20;99.90
37518;DHT22;23366;52.498;13.446;2023-10-31T11:04:32;14.30;99.90
37518;DHT22;23366;52.498;13.446;2023-10-31T11:06:58;14.30;99.90
37518;DHT22;23366;52.498;13.446;2023-10-31T11:09:24;14.30;99.90
37518;DHT22;23366;52.498;13.446;2023-10-31T11:11:51;14.30;99.90
37518;DHT22;23366;52.498;13.446;2023-10-31T11:14:18;14.30;99.90
37518;DHT22;23366;52.498;13.446;2023-10-31T11:16:48;14.30;99.90
37518;DHT22;23366;52.498;13.446;2023-10-31T11:19:15;14.20;99.90
37518;DHT22;23366;52.498;13.446;2023-10-31T11:22:01;14.20;99.90
37518;DHT22;23366;52.498;13.446;2023-10-31T11:24:28;14.20;99.90
37518;DHT22;23366;52.498;13.446;2023-10-31T11:26:59;14.10;99.90
37518;DHT22;23366;52.498;13.446;2023-10-31T11:29:25;14.10;99.90
37518;DHT22;23366;52.498;13.446;2023-10-31T11:31:51;14.10;99.90
37518;DHT22;23366;52.498;13.446;2023-10-31T11:34:17;14.10;99.90
37518;DHT22;23366;52.498;13.446;2023-10-31T11:36:45;14.00;99.90
37518;DHT22;23366;52.498;13.446;2023-10-31T11:39:18;14.00;99.90
37518;DHT22;23366;52.498;13.446;2023-10-31T11:41:49;13.90;99.90
37518;DHT22;23366;52.498;13.446;2023-10-31T11:44:22;13.80;99.90
37518;DHT22;23366;52.498;13.446;2023-10-31T11:46:50;13.70;99.90
37518;DHT22;23366;52.498;13.446;2023-10-31T11:49:17;13.60;99.90
37518;DHT22;23366;52.498;13.446;2023-10-31T11:51:45;13.60;99.90
37518;DHT22;23366;52.498;13.446;2023-10-31T11:54:13;13.60;99.90
37518;DHT22;23366;52.498;13.446;2023-10-31T11:56:39;13.50;99.90
37518;DHT22;23366;52.498;13.446;2023-10-31T11:59:05;13.50;99.90
37518;DHT22;23366;52.498;13.446;2023-10-31T12:01:33;13.60;99.90
37518;DHT22;23366;52.498;13.446;2023-10-31T12:04:00;13.70;99.90
37518;DHT22;23366;52.498;13.446;2023-10-31T12:06:26;13.80;99.90
37518;DHT22;23366;52.498;13.446;2023-10-31T12:08:51;13.70;99.90
37518;DHT22;23366;52.498;13.446;2023-10-31T12:11:19;13.70;99.90
37518;DHT22;23366;52.498;13.446;2023-10-31T12:13:58;13.60;99.90
37518;DHT22;23366;52.498;13.446;2023-10-31T12:16:29;13.50;99.90
37518;DHT22;23366;52.498;13.446;2023-10-31T12:19:00;13.50;99.90
37518;DHT22;23366;52.498;13.446;2023-10-31T12:21:46;13.50;99.90
37518;DHT22;23366;52.498;13.446;2023-10-31T12:24:17;13.40;99.90
37518;DHT22;23366;52.498;13.446;2023-10-31T12:26:44;13.50;99.90
37518;DHT22;23366;52.498;13.446;2023-10-31T12:29:15;13.50;99.90
37518;DHT22;23366;52.498;13.446;2023-10-31T12:31:53;13.50;99.90
37518;DHT22;23366;52.498;13.446;2023-10-31T12:34:20;13.50;99.90
37518;DHT22;23366;52.498;13.446;2023-10-31T12:36:48;13.50;99.90
37518;DHT22;23366;52.498;13.446;2023-10-31T12:39:14;13.50;99.90
37518;DHT22;23366;52.498;13.446;2023-10-31T12:41:41;13.60;99.90
37518;DHT22;23366;52.498;13.446;2023-10-31T12:44:08;13.60;99.90
37518;DHT22;23366;52.498;13.446;2023-10-31T12:46:38;13.60;99.90
37518;DHT22;23366;52.498;13.446;2023-10-31T12:49:03;13.70;99.90
37518;DHT22;23366;52.498;13.446;2023-10-31T12:51:29;13.70;99.90
37518;DHT22;23366;52.498;13.446;2023-10-31T12:53:54;13.80;99.90
37518;DHT22;23366;52.498;13.446;2023-10-31T12:56:40;13.80;99.90
37518;DHT22;23366;52.498;13.446;2023-10-31T12:59:07;13.70;99.90
37518;DHT22;23366;52.498;13.446;2023-10-31T13:01:34;13.70;99.90
37518;DHT22;23366;52.498;13.446;2023-10-31T13:04:01;13.70;99.90
37518;DHT22;23366;52.498;13.446;2023-10-31T13:06:27;13.70;99.90
37518;DHT22;23366;52.498;13.446;2023-10-31T13:08:55;13.60;99.90
37518;DHT22;23366;52.498;13.446;2023-10-31T13:11:22;13.60;99.90
37518;DHT22;23366;52.498;13.446;2023-10-31T13:13:51;13.50;99.90
37518;DHT22;23366;52.498;13.446;2023-10-31T13:16:17;13.50;99.90
37518;DHT22;23366;52.498;13.446;2023-10-31T13:18:42;13.50;99.90
37518;DHT22;23366;52.498;13.446;2023-10-31T13:21:08;13.50;99.90
37518;DHT22;23366;52.498;13.446;2023-10-31T13:23:36;13.40;99.90
37518;DHT22;23366;52.498;13.446;2023-10-31T13:26:03;13.40;99.90
37518;DHT22;23366;52.498;13.446;2023-10-31T13:28:29;13.30;99.90
37518;DHT22;23366;52.498;13.446;2023-10-31T13:30:56;13.30;99.90
37518;DHT22;23366;52.498;13.446;2023-10-31T13:33:21;13.30;99.90
37518;DHT22;23366;52.498;13.446;2023-10-31T13:35:47;13.30;99.90
37518;DHT22;23366;52.498;13.446;2023-10-31T13:38:12;13.30;99.90
37518;DHT22;23366;52.498;13.446;2023-10-31T13:40:38;13.30;99.90
37518;DHT22;23366;52.498;13.446;2023-10-31T13:43:05;13.40;99.90
37518;DHT22;23366;52.498;13.446;2023-10-31T13:45:30;13.40;99.90
37518;DHT22;23366;52.498;13.446;2023-10-31T13:47:56;13.40;99.90
37518;DHT22;23366;52.498;13.446;2023-10-31T13:50:21;13.30;99.90
37518;DHT22;23366;52.498;13.446;2023-10-31T13:52:48;13.30;99.90
37518;DHT22;23366;52.498;13.446;2023-10-31T13:55:14;13.30;99.90
37518;DHT22;23366;52.498;13.446;2023-10-31T13:57:40;13.20;99.90
37518;DHT22;23366;52.498;13.446;2023-10-31T14:00:06;13.20;99.90
37518;DHT22;23366;52.498;13.446;2023-10-31T14:02:34;13.10;99.90
37518;DHT22;23366;52.498;13.446;2023-10-31T14:05:00;13.00;99.90
37518;DHT22;23366;52.498;13.446;2023-10-31T14:07:26;13.00;99.90
37518;DHT22;23366;52.498;13.446;2023-10-31T14:09:52;12.90;99.90
37518;DHT22;23366;52.498;13.446;2023-10-31T14:12:18;12.90;99.90
37518;DHT22;23366;52.498;13.446;2023-10-31T14:14:44;12.80;99.90
37518;DHT22;23366;52.498;13.446;2023-10-31T14:17:13;12.80;99.90
37518;DHT22;23366;52.498;13.446;2023-10-31T14:19:39;12.80;99.90
37518;DHT22;23366;52.498;13.446;2023-10-31T14:22:04;12.80;99.90
37518;DHT22;23366;52.498;13.446;2023-10-31T14:24:30;12.70;99.90
37518;DHT22;23366;52.498;13.446;2023-10-31T14:26:57;12.60;99.90
37518;DHT22;23366;52.498;13.446;2023-10-31T14:29:24;12.50;99.90
37518;DHT22;23366;52.498;13.446;2023-10-31T14:31:49;12.40;99.90
37518;DHT22;23366;52.498;13.446;2023-10-31T14:34:15;12.20;99.90
37518;DHT22;23366;52.498;13.446;2023-10-31T14:36:40;12.10;99.90
37518;DHT22;23366;52.498;13.446;2023-10-31T14:39:07;12.10;99.90
37518;DHT22;23366;52.498;13.446;2023-10-31T14:41:33;12.00;99.90
37518;DHT22;23366;52.498;13.446;2023-10-31T14:43:59;11.90;99.90
37518;DHT22;23366;52.498;13.446;2023-10-31T14:46:26;11.90;99.90
37518;DHT22;23366;52.498;13.446;2023-10-31T14:48:52;11.80;99.90
37518;DHT22;23366;52.498;13.446;2023-10-31T14:51:17;11.70;99.90
37518;DHT22;23366;52.498;13.446;2023-10-31T14:53:43;11.70;99.90
37518;DHT22;23366;52.498;13.446;2023-10-31T14:56:08;11.70;99.90
37518;DHT22;23366;52.498;13.446;2023-10-31T14:58:33;11.60;99.90
37518;DHT22;23366;52.498;13.446;2023-10-31T15:00:59;11.60;99.90
37518;DHT22;23366;52.498;13.446;2023-10-31T15:03:25;11.50;99.90
37518;DHT22;23366;52.498;13.446;2023-10-31T15:05:50;11.60;99.90
37518;DHT22;23366;52.498;13.446;2023-10-31T15:08:16;11.50;99.90
37518;DHT22;23366;52.498;13.446;2023-10-31T15:10:41;11.50;99.90